Time;durP1;ratioP1;P1;durP2;ratioP2;P2;SDS_P1;SDS_P2;PMS_P1;PMS_P2;Temp;Humidity;BMP_temperature;BMP_pressure;BME280_temperature;BME280_humidity;BME280_pressure;Samples;Min_cycle;Max_cycle;Signal;HPM_P1;HPM_P2
2021/09/29 00:02:15;;;;;;;22.73;20.33;;;;;;;17.56;57.58;94298.56;4983921;28;20119;-72
2021/09/29 00:04:41;;;;;;;25.63;20.52;;;;;;;17.36;58.12;94291.50;4976253;28;20038;-71
2021/09/29 00:07:06;;;;;;;26.10;21.63;;;;;;;17.27;58.71;94298.94;4974335;28;20498;-70
2021/09/29 00:09:32;;;;;;;23.10;20.55;;;;;;;17.37;58.75;94303.84;4977998;28;20042;-72
2021/09/29 00:11:57;;;;;;;23.88;20.08;;;;;;;17.09;59.28;94290.38;4975343;28;20030;-71
2021/09/29 00:14:23;;;;;;;23.73;21.23;;;;;;;17.24;59.04;94307.72;4979113;28;20077;-71
2021/09/29 00:16:48;;;;;;;25.88;20.65;;;;;;;17.22;58.92;94302.66;4973613;28;20038;-73
2021/09/29 00:19:13;;;;;;;23.42;20.60;;;;;;;17.30;58.57;94292.91;4983839;28;20129;-73
2021/09/29 00:21:39;;;;;;;26.83;20.63;;;;;;;17.11;58.55;94259.34;4978130;28;20026;-70
2021/09/29 00:24:05;;;;;;;23.45;19.17;;;;;;;17.35;58.26;94295.34;4976198;28;22495;-72
2021/09/29 00:26:30;;;;;;;24.40;19.67;;;;;;;17.52;58.17;94311.16;4979733;28;20045;-73
2021/09/29 00:28:56;;;;;;;22.55;18.95;;;;;;;17.41;58.25;94294.72;4983662;28;20401;-71
2021/09/29 00:31:38;;;;;;;21.13;18.35;;;;;;;17.52;57.81;94305.78;4981562;28;20045;-70
2021/09/29 00:34:12;;;;;;;22.98;17.50;;;;;;;17.21;58.07;94287.66;4978656;28;20038;-71
2021/09/29 00:36:44;;;;;;;20.48;16.50;;;;;;;17.42;57.84;94295.53;4983518;28;20609;-72
2021/09/29 00:39:12;;;;;;;20.95;16.75;;;;;;;17.46;57.57;94293.69;4975748;28;20395;-71
2021/09/29 00:41:38;;;;;;;19.50;16.42;;;;;;;17.48;57.67;94294.16;4985649;28;20123;-72
2021/09/29 00:44:05;;;;;;;19.63;15.55;;;;;;;17.45;57.53;94300.22;4981019;28;20107;-72
2021/09/29 00:46:31;;;;;;;17.85;15.80;;;;;;;17.24;57.44;94296.97;4976466;28;20081;-72
2021/09/29 00:48:56;;;;;;;21.33;15.68;;;;;;;17.30;57.96;94303.66;4977157;28;20058;-71
2021/09/29 00:51:21;;;;;;;17.58;15.40;;;;;;;16.74;58.98;94274.81;4976919;28;20478;-71
2021/09/29 00:53:53;;;;;;;16.25;13.68;;;;;;;16.90;59.02;94277.59;4981168;28;20031;-71
2021/09/29 00:56:22;;;;;;;17.63;14.45;;;;;;;17.10;58.75;94290.06;4978307;28;20035;-71
2021/09/29 00:58:48;;;;;;;17.73;13.25;;;;;;;17.07;58.32;94296.09;4971053;28;20588;-73
2021/09/29 01:01:14;;;;;;;16.85;13.75;;;;;;;17.07;57.85;94271.13;4984056;28;20555;-73
2021/09/29 01:03:42;;;;;;;12.90;11.60;;;;;;;16.98;58.25;94287.41;4984232;28;20050;-71
2021/09/29 01:06:16;;;;;;;13.02;11.15;;;;;;;17.19;57.57;94292.63;4972800;28;20476;-72
2021/09/29 01:08:50;;;;;;;10.23;9.32;;;;;;;17.20;57.08;94288.03;4971960;28;20058;-71
2021/09/29 01:11:33;;;;;;;13.65;9.52;;;;;;;17.27;57.24;94288.97;4980539;28;20115;-71
2021/09/29 01:14:10;;;;;;;9.88;8.27;;;;;;;17.29;56.68;94296.72;4975282;28;20038;-72
2021/09/29 01:16:38;;;;;;;9.82;7.55;;;;;;;17.38;56.44;94295.44;4981645;28;20134;-73
2021/09/29 01:19:29;;;;;;;8.50;7.70;;;;;;;17.32;56.20;94269.13;4983135;28;20498;-71
2021/09/29 01:22:16;;;;;;;8.35;7.35;;;;;;;17.38;55.89;94283.91;4976859;28;20042;-71
2021/09/29 01:24:59;;;;;;;8.50;7.60;;;;;;;17.44;55.94;94294.06;4976141;28;20034;-73
2021/09/29 01:27:25;;;;;;;7.80;6.07;;;;;;;17.45;55.31;94289.47;4976487;28;20318;-74
2021/09/29 01:29:52;;;;;;;8.68;7.78;;;;;;;17.45;55.39;94289.47;4979510;28;20029;-72
2021/09/29 01:32:20;;;;;;;9.43;8.05;;;;;;;17.41;55.59;94304.69;4985992;28;20109;-72
2021/09/29 01:34:48;;;;;;;7.50;6.80;;;;;;;17.40;55.42;94298.56;4987460;28;20049;-72
2021/09/29 01:37:14;;;;;;;9.32;7.32;;;;;;;17.54;55.39;94298.94;4977966;28;21133;-71
2021/09/29 01:39:40;;;;;;;9.48;7.22;;;;;;;17.45;55.09;94302.91;4979646;28;20049;-71
2021/09/29 01:42:06;;;;;;;7.47;6.43;;;;;;;17.49;54.48;94299.19;4983797;28;20061;-71
2021/09/29 01:44:31;;;;;;;7.70;6.20;;;;;;;17.34;54.93;94288.41;4982242;28;20027;-71
2021/09/29 01:46:58;;;;;;;8.00;7.05;;;;;;;17.42;54.95;94300.91;4980786;28;20054;-73
2021/09/29 01:49:32;;;;;;;7.88;6.85;;;;;;;17.42;55.21;94306.28;4979442;28;20129;-72
2021/09/29 01:51:58;;;;;;;8.53;6.23;;;;;;;17.43;55.30;94303.25;4990304;28;20039;-72
2021/09/29 01:54:26;;;;;;;8.73;6.93;;;;;;;17.35;55.03;94308.78;4974735;28;20058;-71
2021/09/29 01:56:52;;;;;;;6.60;5.85;;;;;;;17.37;54.56;94301.94;4977301;28;20417;-72
2021/09/29 01:59:18;;;;;;;7.55;6.70;;;;;;;17.32;54.60;94283.34;4978965;28;20035;-70
2021/09/29 02:01:44;;;;;;;8.10;6.22;;;;;;;17.49;54.98;94295.72;4977433;28;20041;-72
2021/09/29 02:04:11;;;;;;;8.05;6.18;;;;;;;17.49;54.62;94290.34;4985597;28;20574;-72
2021/09/29 02:06:49;;;;;;;7.95;5.90;;;;;;;17.50;54.82;94289.22;4991486;28;20304;-74
2021/09/29 02:09:15;;;;;;;7.45;6.22;;;;;;;17.34;54.09;94258.81;4981131;28;20408;-72
2021/09/29 02:11:40;;;;;;;7.53;5.97;;;;;;;17.41;54.19;94277.81;4980315;28;20377;-72
2021/09/29 02:14:07;;;;;;;7.18;6.10;;;;;;;17.45;54.42;94287.53;4978838;28;20095;-73
2021/09/29 02:16:33;;;;;;;6.40;5.80;;;;;;;17.37;54.49;94285.00;4980578;28;20042;-71
2021/09/29 02:18:58;;;;;;;7.97;5.88;;;;;;;17.12;55.20;94290.47;4976439;28;20047;-72
2021/09/29 02:21:23;;;;;;;6.95;6.25;;;;;;;17.03;55.16;94281.00;4975911;28;20039;-70
2021/09/29 02:23:49;;;;;;;9.60;7.47;;;;;;;17.03;55.14;94295.22;4974086;28;20104;-71
2021/09/29 02:26:14;;;;;;;8.35;6.72;;;;;;;16.88;55.22;94293.25;4977896;28;20038;-71
2021/09/29 02:28:40;;;;;;;7.35;6.65;;;;;;;16.90;55.48;94306.34;4974148;28;20072;-72
2021/09/29 02:31:05;;;;;;;7.80;6.90;;;;;;;16.86;55.60;94292.81;4974076;28;20117;-72
2021/09/29 02:33:33;;;;;;;8.07;6.65;;;;;;;16.99;55.02;94302.41;4976232;28;20066;-74
2021/09/29 02:35:58;;;;;;;8.00;6.90;;;;;;;17.10;54.72;94311.56;4998027;28;20026;-71
2021/09/29 02:38:24;;;;;;;8.18;6.63;;;;;;;17.03;54.92;94302.50;4978463;28;20047;-71
2021/09/29 02:40:49;;;;;;;8.32;7.45;;;;;;;16.75;54.85;94297.09;4981083;28;20069;-71
2021/09/29 02:43:15;;;;;;;7.03;6.32;;;;;;;16.74;54.61;94315.13;4973303;28;20034;-74
2021/09/29 02:45:40;;;;;;;8.48;7.13;;;;;;;16.81;54.73;94317.25;4976814;28;20038;-71
2021/09/29 02:48:06;;;;;;;9.32;8.32;;;;;;;16.58;54.43;94300.03;4981596;28;20064;-72
2021/09/29 02:50:31;;;;;;;7.30;6.60;;;;;;;16.71;54.19;94298.91;4974602;28;20065;-71
2021/09/29 02:52:57;;;;;;;8.10;7.30;;;;;;;16.77;54.09;94303.69;4983379;28;20062;-72
2021/09/29 02:55:24;;;;;;;10.50;8.23;;;;;;;16.83;53.90;94312.28;4975601;28;20369;-74
2021/09/29 02:57:52;;;;;;;8.02;7.20;;;;;;;16.89;53.70;94316.31;4974793;28;20053;-73
2021/09/29 03:00:18;;;;;;;7.90;7.03;;;;;;;16.70;53.57;94319.59;4982103;28;20085;-71
2021/09/29 03:02:43;;;;;;;8.70;7.72;;;;;;;16.65;54.01;94327.13;4981401;28;20061;-71
2021/09/29 03:05:11;;;;;;;8.35;7.55;;;;;;;16.78;53.95;94320.59;5054969;28;20039;-74
2021/09/29 03:07:36;;;;;;;9.23;7.47;;;;;;;16.61;53.94;94320.84;4983169;28;20035;-71
2021/09/29 03:10:03;;;;;;;8.85;7.97;;;;;;;16.72;53.81;94321.97;4975255;28;20506;-74
2021/09/29 03:12:29;;;;;;;8.65;7.65;;;;;;;16.73;53.61;94321.59;4976604;28;20058;-73
2021/09/29 03:14:54;;;;;;;8.32;7.47;;;;;;;16.45;53.95;94306.56;4984679;28;20129;-73
2021/09/29 03:17:20;;;;;;;7.90;7.20;;;;;;;16.52;53.88;94312.94;4976883;28;20035;-71
2021/09/29 03:19:45;;;;;;;8.43;7.50;;;;;;;16.52;54.01;94309.47;4977484;28;20624;-71
2021/09/29 03:22:10;;;;;;;8.60;7.80;;;;;;;16.29;54.35;94293.78;4978178;28;20156;-71
2021/09/29 03:24:36;;;;;;;8.02;7.22;;;;;;;16.36;54.43;94308.56;4978436;28;20109;-74
2021/09/29 03:27:01;;;;;;;9.02;7.45;;;;;;;16.20;54.43;94300.38;4978085;28;20030;-71
2021/09/29 03:29:27;;;;;;;8.45;7.20;;;;;;;16.37;54.53;94300.19;4977508;28;20472;-73
2021/09/29 03:31:52;;;;;;;7.97;6.60;;;;;;;16.53;54.13;94321.75;4981242;28;20046;-71
2021/09/29 03:34:18;;;;;;;7.78;7.05;;;;;;;16.48;54.24;94320.06;4976936;28;20041;-70
2021/09/29 03:36:43;;;;;;;8.00;6.57;;;;;;;16.52;54.42;94304.09;4972659;28;20046;-71
2021/09/29 03:39:08;;;;;;;8.27;6.80;;;;;;;16.57;54.63;94315.38;4973781;28;20045;-72
2021/09/29 03:41:34;;;;;;;7.53;6.82;;;;;;;16.54;54.46;94304.53;4979238;28;20027;-71
2021/09/29 03:43:59;;;;;;;6.72;6.07;;;;;;;16.51;54.58;94302.53;4975052;28;20030;-71
2021/09/29 03:46:25;;;;;;;7.72;6.50;;;;;;;16.51;54.31;94299.84;4977835;28;21002;-70
2021/09/29 03:48:51;;;;;;;7.18;6.45;;;;;;;16.50;53.93;94293.69;4978102;28;20692;-72
2021/09/29 03:51:16;;;;;;;7.07;6.15;;;;;;;16.70;54.26;94308.06;4977502;28;20030;-72
2021/09/29 03:53:42;;;;;;;7.50;6.80;;;;;;;16.71;53.86;94304.28;4976492;28;20050;-71
2021/09/29 03:56:07;;;;;;;9.60;7.47;;;;;;;16.59;53.90;94280.13;4975743;28;20580;-71
2021/09/29 03:58:33;;;;;;;7.55;6.03;;;;;;;16.48;53.71;94281.69;4980692;28;20035;-71
2021/09/29 04:00:58;;;;;;;6.50;5.95;;;;;;;16.57;53.46;94299.28;4979570;28;20046;-72
2021/09/29 04:03:23;;;;;;;6.18;5.50;;;;;;;16.60;53.67;94293.22;4976918;28;20037;-72
2021/09/29 04:05:49;;;;;;;6.00;5.38;;;;;;;16.58;53.77;94290.06;4982150;28;20026;-72
2021/09/29 04:08:16;;;;;;;6.05;5.53;;;;;;;16.49;53.51;94289.44;4978579;28;21168;-73
2021/09/29 04:10:41;;;;;;;5.75;5.22;;;;;;;16.68;53.57;94286.94;4980948;28;20057;-71
2021/09/29 04:13:07;;;;;;;9.05;5.70;;;;;;;16.64;53.26;94304.06;4980943;28;20030;-71
2021/09/29 04:15:34;;;;;;;6.45;5.32;;;;;;;16.52;53.34;94285.31;4985055;28;20263;-71
2021/09/29 04:18:00;;;;;;;7.05;5.22;;;;;;;16.59;53.25;94306.97;4986374;28;20035;-70
2021/09/29 04:20:25;;;;;;;6.65;5.82;;;;;;;16.64;53.45;94310.22;4977290;28;20401;-73
2021/09/29 04:22:51;;;;;;;6.05;5.50;;;;;;;16.67;53.71;94316.81;4964566;28;20039;-72
2021/09/29 04:25:17;;;;;;;8.23;6.20;;;;;;;16.58;53.53;94308.09;4970942;28;20031;-72
2021/09/29 04:27:42;;;;;;;6.68;5.25;;;;;;;16.58;53.72;94316.16;4960108;28;20039;-72
2021/09/29 04:30:08;;;;;;;8.15;5.72;;;;;;;16.48;54.00;94305.88;4961246;28;20053;-71
2021/09/29 04:32:34;;;;;;;7.13;6.18;;;;;;;16.55;53.57;94311.47;4961236;28;20027;-70
2021/09/29 04:34:59;;;;;;;7.38;5.80;;;;;;;16.55;53.75;94322.19;4960498;28;20038;-73
2021/09/29 04:37:24;;;;;;;6.00;5.43;;;;;;;16.60;53.31;94330.03;4960047;28;20659;-71
2021/09/29 04:39:50;;;;;;;8.43;6.10;;;;;;;16.57;53.59;94328.03;4952205;28;20055;-70
2021/09/29 04:42:15;;;;;;;6.68;5.78;;;;;;;16.46;53.64;94326.91;4952787;28;20442;-70
2021/09/29 04:44:41;;;;;;;6.47;5.72;;;;;;;16.46;53.70;94332.28;4949488;28;20030;-71
2021/09/29 04:47:06;;;;;;;8.25;7.45;;;;;;;16.37;53.95;94335.09;4954751;28;20080;-70
2021/09/29 04:49:32;;;;;;;8.00;6.63;;;;;;;16.33;53.66;94326.91;4954625;28;20195;-71
2021/09/29 04:51:57;;;;;;;7.15;5.60;;;;;;;16.33;53.77;94332.28;4962334;28;21498;-71
2021/09/29 04:54:22;;;;;;;7.35;6.40;;;;;;;16.27;53.53;94333.63;4973246;28;20050;-71
2021/09/29 04:56:50;;;;;;;8.90;6.97;;;;;;;16.07;54.02;94345.22;4958498;28;20042;-70
2021/09/29 04:59:15;;;;;;;11.63;7.25;;;;;;;16.05;54.42;94344.78;4953136;28;20109;-73
2021/09/29 05:01:41;;;;;;;7.88;6.85;;;;;;;16.11;54.57;94323.88;4965662;28;20038;-70
2021/09/29 05:04:06;;;;;;;8.40;6.95;;;;;;;15.92;54.42;94353.16;4971658;28;20157;-72
2021/09/29 05:06:34;;;;;;;8.15;7.22;;;;;;;16.00;54.43;94345.00;4976298;28;20030;-70
2021/09/29 05:09:00;;;;;;;10.55;7.85;;;;;;;15.64;54.79;94342.25;4969448;28;20065;-71
2021/09/29 05:11:34;;;;;;;11.43;7.57;;;;;;;15.66;55.12;94350.75;4968507;28;20481;-72
2021/09/29 05:13:59;;;;;;;8.70;7.05;;;;;;;15.66;54.94;94331.97;4971999;28;20053;-73
2021/09/29 05:16:25;;;;;;;10.32;8.15;;;;;;;15.65;55.19;94351.84;4968601;28;20035;-72
2021/09/29 05:18:50;;;;;;;9.40;7.45;;;;;;;15.50;55.86;94349.81;4966316;28;20039;-73
2021/09/29 05:21:16;;;;;;;9.52;6.82;;;;;;;15.66;55.52;94356.09;4964310;28;20069;-73
2021/09/29 05:23:41;;;;;;;9.55;8.00;;;;;;;15.76;55.29;94343.06;4971935;28;20019;-72
2021/09/29 05:26:07;;;;;;;8.77;7.28;;;;;;;15.84;55.39;94344.09;4971940;28;20077;-71
2021/09/29 05:28:36;;;;;;;10.45;7.85;;;;;;;15.97;55.03;94369.03;4976010;28;20125;-72
2021/09/29 05:31:02;;;;;;;9.40;7.97;;;;;;;16.08;54.63;94372.84;4976987;28;20046;-73
2021/09/29 05:33:28;;;;;;;10.70;7.60;;;;;;;15.94;54.45;94358.97;4978933;28;20033;-73
2021/09/29 05:35:53;;;;;;;8.30;6.82;;;;;;;15.95;54.60;94380.06;4980725;28;20038;-71
2021/09/29 05:38:19;;;;;;;14.68;7.53;;;;;;;15.94;54.41;94373.13;4974017;28;20157;-72
2021/09/29 05:40:45;;;;;;;9.52;6.07;;;;;;;16.00;54.75;94382.53;4971531;28;20506;-72
2021/09/29 05:43:11;;;;;;;7.95;7.15;;;;;;;15.87;54.45;94378.28;4975748;28;20049;-71
2021/09/29 05:45:36;;;;;;;7.18;6.20;;;;;;;15.78;54.79;94358.81;4964097;28;20536;-73
2021/09/29 05:48:02;;;;;;;8.93;6.40;;;;;;;15.77;55.24;94379.50;4975917;28;20034;-70
2021/09/29 05:50:27;;;;;;;8.90;6.97;;;;;;;15.91;55.01;94384.53;4968914;28;20042;-71
2021/09/29 05:52:53;;;;;;;7.68;6.90;;;;;;;15.80;54.88;94364.63;4979849;28;20506;-72
2021/09/29 05:55:18;;;;;;;7.75;6.32;;;;;;;15.74;54.83;94374.03;4981466;28;20042;-71
2021/09/29 05:57:44;;;;;;;8.63;7.10;;;;;;;16.02;54.76;94390.28;4980326;28;20122;-72
2021/09/29 06:00:10;;;;;;;10.68;6.63;;;;;;;16.04;54.61;94388.81;4983917;28;20026;-71
2021/09/29 06:02:35;;;;;;;9.88;7.15;;;;;;;16.15;54.37;94398.00;4971080;28;20014;-74
2021/09/29 06:05:01;;;;;;;11.05;8.32;;;;;;;16.09;54.56;94399.31;4978782;28;20766;-73
2021/09/29 06:07:26;;;;;;;10.60;7.40;;;;;;;16.23;54.55;94402.47;4978081;28;20423;-70
2021/09/29 06:09:52;;;;;;;9.85;7.63;;;;;;;16.19;54.19;94404.25;4974768;28;20588;-71
2021/09/29 06:12:17;;;;;;;14.52;8.50;;;;;;;15.94;54.67;94383.88;4978986;28;20030;-70
2021/09/29 06:14:49;;;;;;;8.35;7.55;;;;;;;15.96;54.68;94407.69;4986922;28;20175;-71
2021/09/29 06:19:49;;;;;;;8.85;6.80;;;;;;;16.16;54.69;94418.34;4978116;28;20510;-71
2021/09/29 06:22:14;;;;;;;11.50;8.13;;;;;;;15.79;54.86;94419.41;4980738;28;20061;-72
2021/09/29 06:24:40;;;;;;;8.93;8.02;;;;;;;15.40;55.42;94381.22;4979685;28;20042;-72
2021/09/29 06:27:05;;;;;;;11.80;7.93;;;;;;;15.76;55.51;94414.69;4981278;28;20501;-71
2021/09/29 06:29:31;;;;;;;8.82;7.93;;;;;;;15.69;55.63;94425.97;4978326;28;20438;-70
2021/09/29 06:31:56;;;;;;;9.75;7.90;;;;;;;15.84;55.52;94411.16;4981174;28;20044;-73
2021/09/29 06:34:23;;;;;;;9.23;7.25;;;;;;;15.63;55.96;94423.81;4986410;28;20964;-70
2021/09/29 06:36:48;;;;;;;9.90;8.20;;;;;;;15.72;55.82;94408.41;4980189;28;20038;-71
2021/09/29 06:39:14;;;;;;;11.38;7.90;;;;;;;15.74;55.56;94400.84;4979547;28;20540;-71
2021/09/29 06:41:41;;;;;;;8.30;6.68;;;;;;;15.80;55.55;94404.84;4979089;28;20396;-71
2021/09/29 06:44:07;;;;;;;9.30;7.80;;;;;;;15.99;55.48;94407.81;4979041;28;20051;-72
2021/09/29 06:46:32;;;;;;;9.13;6.72;;;;;;;16.01;55.22;94413.63;4978534;28;20030;-72
2021/09/29 06:48:58;;;;;;;8.85;6.40;;;;;;;15.84;55.44;94405.78;4978842;28;20516;-71
2021/09/29 06:51:23;;;;;;;8.15;7.00;;;;;;;15.89;55.64;94429.69;4981058;28;20750;-71
2021/09/29 06:53:49;;;;;;;10.40;8.23;;;;;;;15.79;55.75;94430.13;4980268;28;20064;-72
2021/09/29 06:56:14;;;;;;;9.73;7.30;;;;;;;15.74;55.89;94433.78;4976119;28;20039;-72
2021/09/29 06:58:40;;;;;;;14.98;8.55;;;;;;;15.38;56.29;94421.00;4969786;28;20042;-73
2021/09/29 07:01:05;;;;;;;10.20;6.43;;;;;;;15.20;57.05;94414.22;4981211;28;20065;-70
2021/09/29 07:03:30;;;;;;;9.27;7.60;;;;;;;15.04;57.96;94437.31;4979012;28;20034;-72
2021/09/29 07:05:56;;;;;;;9.75;7.05;;;;;;;15.15;57.99;94427.81;4978176;28;20030;-74
2021/09/29 07:08:22;;;;;;;11.68;7.82;;;;;;;15.10;57.86;94419.16;4975938;28;20134;-71
2021/09/29 07:10:48;;;;;;;10.95;7.60;;;;;;;15.27;57.74;94429.75;4975783;28;20034;-73
2021/09/29 07:13:14;;;;;;;8.82;6.82;;;;;;;15.57;57.13;94439.31;4976339;28;20057;-71
2021/09/29 07:15:39;;;;;;;9.00;7.10;;;;;;;15.64;56.68;94430.75;4985700;28;20046;-71
2021/09/29 07:18:07;;;;;;;7.28;6.55;;;;;;;15.70;56.60;94427.50;4975098;28;20148;-74
2021/09/29 07:20:33;;;;;;;8.93;6.00;;;;;;;15.69;56.40;94431.31;4981170;28;20105;-72
2021/09/29 07:22:58;;;;;;;7.75;6.88;;;;;;;15.79;56.08;94443.53;4979925;28;20039;-71
2021/09/29 07:25:27;;;;;;;8.52;6.78;;;;;;;15.71;56.40;94444.38;4980986;28;20107;-70
2021/09/29 07:27:52;;;;;;;7.75;6.95;;;;;;;15.45;56.79;94448.06;4982975;28;20454;-72
2021/09/29 07:30:18;;;;;;;10.77;8.02;;;;;;;15.24;57.82;94430.41;4977142;28;20036;-71
2021/09/29 07:32:45;;;;;;;11.52;7.88;;;;;;;15.24;58.34;94449.97;4983944;28;20034;-71
2021/09/29 07:35:12;;;;;;;11.25;8.18;;;;;;;15.07;58.64;94428.63;4976150;28;20142;-71
2021/09/29 07:37:38;;;;;;;9.85;7.75;;;;;;;15.28;57.69;94436.69;4977519;28;20038;-74
2021/09/29 07:40:05;;;;;;;16.23;12.40;;;;;;;15.34;57.82;94451.47;4980126;28;20048;-70
2021/09/29 07:42:31;;;;;;;12.43;11.13;;;;;;;15.34;58.41;94451.47;4979069;28;20333;-71
2021/09/29 07:44:56;;;;;;;13.13;8.88;;;;;;;15.48;58.30;94453.91;4974119;28;20041;-72
2021/09/29 07:47:21;;;;;;;10.77;8.20;;;;;;;15.68;57.79;94450.41;4976742;28;21470;-70
2021/09/29 07:49:48;;;;;;;9.95;7.88;;;;;;;15.60;57.12;94454.72;4979918;28;20046;-73
2021/09/29 07:52:13;;;;;;;9.20;8.23;;;;;;;15.74;57.66;94449.09;4977783;28;20061;-71
2021/09/29 07:54:39;;;;;;;9.85;8.30;;;;;;;15.62;57.44;94457.09;4980247;28;20042;-71
2021/09/29 07:57:04;;;;;;;10.50;7.75;;;;;;;15.49;57.52;94453.59;4978966;28;20026;-73
2021/09/29 07:59:30;;;;;;;10.13;7.32;;;;;;;15.70;57.47;94458.91;4981223;28;20443;-71
2021/09/29 08:01:55;;;;;;;10.32;7.55;;;;;;;15.74;57.19;94460.59;4973692;28;20512;-70
2021/09/29 08:04:21;;;;;;;8.60;7.40;;;;;;;15.37;57.04;94451.59;4976485;28;20045;-70
2021/09/29 08:06:48;;;;;;;11.27;8.68;;;;;;;15.19;58.04;94468.91;4977619;28;20494;-74
2021/09/29 08:09:14;;;;;;;10.90;8.18;;;;;;;15.10;58.94;94468.19;4975912;28;20464;-72
2021/09/29 08:11:39;;;;;;;10.45;8.18;;;;;;;15.30;58.38;94462.03;4980114;28;20082;-70
2021/09/29 08:14:05;;;;;;;10.20;8.13;;;;;;;15.22;58.60;94454.84;4975587;28;20039;-71
2021/09/29 08:16:30;;;;;;;10.43;8.70;;;;;;;15.51;58.13;94469.31;5059693;28;20103;-71
2021/09/29 08:18:57;;;;;;;12.48;9.68;;;;;;;15.36;57.89;94470.66;4976788;28;20047;-71
2021/09/29 08:21:27;;;;;;;12.52;9.25;;;;;;;15.32;58.15;94465.19;4976951;28;20033;-71
2021/09/29 08:23:55;;;;;;;10.45;9.02;;;;;;;15.24;58.27;94466.03;4971330;28;20041;-71
2021/09/29 08:29:09;;;;;;;11.60;9.50;;;;;;;15.67;57.49;94464.94;4976572;28;20042;-72
2021/09/29 08:32:06;;;;;;;;;;;;;;;15.45;57.72;94474.09;4977007;28;20175;-70
2021/09/29 08:35:25;;;;;;;11.20;9.50;;;;;;;15.53;57.03;94464.41;4980330;28;20332;-73
2021/09/29 08:37:32;;;;;;;12.00;10.38;;;;;;;15.22;58.03;94460.22;4974087;28;20138;-72
2021/09/29 08:45:09;;;;;;;14.57;9.85;;;;;;;15.66;57.23;94474.09;4981547;28;20030;-71
2021/09/29 08:47:57;;;;;;;11.57;9.93;;;;;;;15.78;56.85;94476.81;4978672;28;20091;-71
2021/09/29 08:50:38;;;;;;;14.15;10.05;;;;;;;15.73;56.78;94475.13;4965860;28;20034;-70
2021/09/29 08:56:15;;;;;;;12.00;9.68;;;;;;;15.56;56.94;94458.41;4979022;28;20268;-72
2021/09/29 09:17:35;;;;;;;10.85;9.75;;;;;;;15.75;56.92;94480.16;4972237;28;20821;-71
2021/09/29 09:20:30;;;;;;;11.40;9.95;;;;;;;15.71;57.16;94480.03;4986891;28;20042;-71
2021/09/29 09:22:56;;;;;;;14.63;10.02;;;;;;;15.71;56.90;94455.91;4974676;28;20699;-74
2021/09/29 09:25:38;;;;;;;12.02;10.23;;;;;;;15.76;56.79;94484.41;4977017;28;20038;-71
2021/09/29 09:28:04;;;;;;;11.75;10.43;;;;;;;15.71;56.58;94471.19;4979362;28;20041;-73
2021/09/29 09:30:33;;;;;;;11.85;10.27;;;;;;;15.81;56.13;94484.22;4978687;28;20043;-72
2021/09/29 09:32:59;;;;;;;11.70;10.48;;;;;;;16.20;55.72;94488.25;4975951;28;20099;-69
2021/09/29 09:35:29;;;;;;;11.75;9.80;;;;;;;16.28;55.41;94482.78;4978303;28;20165;-70
2021/09/29 09:37:57;;;;;;;12.35;10.32;;;;;;;16.11;55.74;94495.59;4977593;28;20577;-70
2021/09/29 09:40:25;;;;;;;13.73;11.60;;;;;;;16.06;55.70;94471.66;4978571;28;20058;-71
2021/09/29 09:42:56;;;;;;;13.88;11.82;;;;;;;16.11;55.78;94490.25;4978081;28;20068;-73
2021/09/29 09:45:44;;;;;;;13.70;11.82;;;;;;;16.02;55.86;94489.53;4981728;28;20030;-71
2021/09/29 09:48:22;;;;;;;12.88;11.38;;;;;;;15.89;56.38;94494.06;4978023;28;20088;-70
2021/09/29 09:50:47;;;;;;;13.13;10.98;;;;;;;15.83;56.10;94496.19;4977324;28;20037;-70
2021/09/29 09:53:15;;;;;;;12.93;11.55;;;;;;;15.69;56.53;94494.91;4978987;28;20035;-72
2021/09/29 09:55:41;;;;;;;16.30;13.10;;;;;;;16.06;56.08;94493.91;4978172;28;20130;-72
2021/09/29 09:58:06;;;;;;;13.00;11.63;;;;;;;15.72;56.53;94488.88;4976165;28;20497;-71
2021/09/29 10:00:33;;;;;;;14.52;12.98;;;;;;;15.59;57.24;94489.94;4979343;28;20034;-73
2021/09/29 10:03:00;;;;;;;13.35;11.98;;;;;;;15.56;57.90;94495.94;4980331;28;20030;-70
2021/09/29 10:05:27;;;;;;;13.98;12.52;;;;;;;15.73;57.33;94493.91;4981721;28;20629;-70
2021/09/29 10:07:53;;;;;;;13.48;12.07;;;;;;;15.60;57.25;94486.13;4971471;28;20123;-71
2021/09/29 10:26:25;;;;;;;13.70;11.55;;;;;;;15.71;56.76;94471.19;5040836;28;20040;-71
2021/09/29 10:29:05;;;;;;;13.55;11.15;;;;;;;15.82;56.02;94488.47;4996417;28;20433;-72
2021/09/29 11:12:18;;;;;;;17.73;12.25;;;;;;;15.24;58.13;94458.00;4972839;28;20031;-71
2021/09/29 11:34:05;;;;;;;22.17;14.00;;;;;;;15.93;56.86;94462.81;4980656;28;20038;-71
2021/09/29 12:12:24;;;;;;;22.33;16.83;;;;;;;16.01;56.67;94447.72;4980144;28;20045;-72
2021/09/29 12:14:52;;;;;;;21.25;17.33;;;;;;;15.79;56.77;94438.19;4979346;28;21068;-73
2021/09/29 12:17:32;;;;;;;22.27;17.92;;;;;;;15.56;57.04;94442.31;4982319;28;20046;-72
2021/09/29 12:20:00;;;;;;;22.00;16.92;;;;;;;15.70;57.11;94457.00;4975993;28;20125;-73
2021/09/29 12:22:29;;;;;;;21.48;16.60;;;;;;;15.65;56.96;94456.41;4978593;28;20493;-72
2021/09/29 12:25:06;;;;;;;24.20;17.98;;;;;;;15.73;57.22;94450.22;4977227;28;20409;-72
2021/09/29 12:28:02;;;;;;;25.35;19.35;;;;;;;15.96;57.08;94459.44;4978885;28;20076;-71
2021/09/29 12:30:34;;;;;;;21.90;16.65;;;;;;;16.08;56.39;94464.88;4975370;28;20038;-74
2021/09/29 12:33:16;;;;;;;24.63;17.92;;;;;;;16.09;56.74;94466.41;4978025;28;20429;-72
2021/09/29 12:35:54;;;;;;;26.42;18.83;;;;;;;15.84;56.59;94456.75;4984370;28;20506;-73
2021/09/29 12:38:32;;;;;;;23.73;18.08;;;;;;;15.88;57.46;94457.66;4986545;28;20054;-74
2021/09/29 12:40:58;;;;;;;24.02;19.15;;;;;;;15.92;57.46;94452.41;4996317;28;20508;-72
2021/09/29 12:43:25;;;;;;;26.67;19.48;;;;;;;15.97;56.90;94457.56;4978275;28;20045;-73
2021/09/29 12:45:50;;;;;;;22.38;18.33;;;;;;;16.06;56.67;94453.66;4979459;28;20042;-71
2021/09/29 12:48:20;;;;;;;23.35;17.70;;;;;;;15.79;57.38;94452.34;4978627;28;20030;-72
2021/09/29 12:50:52;;;;;;;24.58;19.38;;;;;;;15.57;57.89;94443.88;4982352;28;20034;-71
2021/09/29 12:58:27;;;;;;;27.08;19.17;;;;;;;15.51;58.55;94450.56;4985261;28;20129;-74
2021/09/29 13:00:53;;;;;;;39.15;21.05;;;;;;;15.37;59.44;94448.91;4983345;28;20119;-71
2021/09/29 13:03:18;;;;;;;30.92;22.33;;;;;;;15.18;60.56;94443.22;4983872;28;20018;-72
2021/09/29 13:05:45;;;;;;;28.38;21.33;;;;;;;15.56;59.68;94448.47;4981845;28;20373;-71
2021/09/29 13:08:10;;;;;;;25.67;20.17;;;;;;;15.55;59.43;94435.41;4986763;28;20030;-72
2021/09/29 13:10:37;;;;;;;26.42;20.35;;;;;;;15.53;59.34;94425.00;4979838;28;20387;-74
2021/09/29 13:13:02;;;;;;;24.75;19.73;;;;;;;15.76;58.44;94444.97;4984947;28;20046;-72
2021/09/29 13:15:28;;;;;;;29.17;21.80;;;;;;;15.56;59.44;94442.31;4976665;28;20050;-72
2021/09/29 13:17:55;;;;;;;29.00;20.00;;;;;;;15.55;59.42;94446.88;4978251;28;20037;-71
2021/09/29 13:20:31;;;;;;;30.10;21.02;;;;;;;15.36;59.81;94433.94;4980807;28;20550;-72
2021/09/29 13:23:09;;;;;;;28.83;21.75;;;;;;;15.29;59.88;94422.97;4977984;28;20062;-72
2021/09/29 13:36:34;;;;;;;25.80;19.88;;;;;;;15.44;59.37;94413.56;4986352;28;20068;-71
2021/09/29 13:39:02;;;;;;;23.42;18.48;;;;;;;15.28;59.37;94417.91;4985109;28;20026;-71
2021/09/29 13:41:27;;;;;;;20.33;16.90;;;;;;;15.60;58.51;94427.13;4982993;28;20133;-73
2021/09/29 13:43:53;;;;;;;26.85;20.23;;;;;;;15.45;58.12;94429.31;4977708;28;20039;-71
2021/09/29 13:46:18;;;;;;;25.77;17.55;;;;;;;15.53;57.67;94440.28;4986232;28;20034;-71
2021/09/29 13:48:44;;;;;;;20.70;16.70;;;;;;;15.63;57.51;94434.53;4981606;28;20525;-73
2021/09/29 13:51:09;;;;;;;20.55;15.52;;;;;;;15.67;57.36;94438.13;4979860;28;20030;-72
2021/09/29 13:53:35;;;;;;;21.67;17.35;;;;;;;15.23;58.54;94434.97;4982361;28;20564;-71
2021/09/29 13:56:05;;;;;;;23.73;17.27;;;;;;;15.45;58.16;94434.66;4979614;28;20078;-70
2021/09/29 14:01:46;;;;;;;25.67;17.67;;;;;;;15.71;57.81;94430.97;4981988;28;20133;-71
2021/09/29 14:31:09;;;;;;;18.08;13.77;;;;;;;15.27;56.57;94425.19;5024985;28;20049;-73
2021/09/29 14:33:39;;;;;;;22.42;14.85;;;;;;;15.13;57.31;94440.72;4979737;28;20053;-72
2021/09/29 14:36:04;;;;;;;18.73;15.07;;;;;;;15.41;56.73;94440.97;4981765;28;20025;-73
2021/09/29 14:38:30;;;;;;;22.20;16.33;;;;;;;15.34;56.99;94424.66;4959928;28;20023;-73
2021/09/29 14:40:55;;;;;;;22.45;16.75;;;;;;;15.30;58.51;94440.59;4972106;28;20121;-71